Terminal Aerodrome Forecast
Issued by NWS

Home | Current Version | Previous Version | Text Only | Print | Product List | Glossary On
Versions: 1 2 3 4 5 6 7 8 9 10 11 12 13 14
503
FTUS44 KEPZ 261120
TAFDMN
TAF
KDMN 261120Z 2612/2712 07020G30KT P6SM VCSH SCT050 BKN100
     FM261900 07012G21KT P6SM VCSH BKN040
     FM270300 07010KT P6SM OVC100=

USA.gov is the U.S. government's official web portal to all federal, state and local government web resources and services.